sensor_id;sensor_type;location;lat;lon;timestamp;temperature;humidity
39919;DHT22;25589;51.552;13.424;2024-02-21T00:00:54;9.50;99.90
39919;DHT22;25589;51.552;13.424;2024-02-21T00:03:20;10.20;99.90
39919;DHT22;25589;51.552;13.424;2024-02-21T00:05:45;10.30;99.90
39919;DHT22;25589;51.552;13.424;2024-02-21T00:08:11;10.00;99.90
39919;DHT22;25589;51.552;13.424;2024-02-21T00:10:37;9.90;99.90
39919;DHT22;25589;51.552;13.424;2024-02-21T00:13:02;9.90;99.90
39919;DHT22;25589;51.552;13.424;2024-02-21T00:15:28;8.80;99.90
39919;DHT22;25589;51.552;13.424;2024-02-21T00:17:54;9.80;99.90
39919;DHT22;25589;51.552;13.424;2024-02-21T00:20:20;9.50;99.90
39919;DHT22;25589;51.552;13.424;2024-02-21T00:22:46;9.90;99.90
39919;DHT22;25589;51.552;13.424;2024-02-21T00:25:11;9.50;99.90
39919;DHT22;25589;51.552;13.424;2024-02-21T00:27:37;10.20;99.90
39919;DHT22;25589;51.552;13.424;2024-02-21T00:30:03;9.20;99.90
39919;DHT22;25589;51.552;13.424;2024-02-21T00:32:29;9.70;99.90
39919;DHT22;25589;51.552;13.424;2024-02-21T00:34:54;9.70;99.90
39919;DHT22;25589;51.552;13.424;2024-02-21T00:37:20;9.70;99.90
39919;DHT22;25589;51.552;13.424;2024-02-21T00:39:45;9.60;99.90
39919;DHT22;25589;51.552;13.424;2024-02-21T00:42:11;9.60;99.90
39919;DHT22;25589;51.552;13.424;2024-02-21T00:44:37;9.60;99.90
39919;DHT22;25589;51.552;13.424;2024-02-21T00:47:03;9.60;99.90
39919;DHT22;25589;51.552;13.424;2024-02-21T00:51:54;10.10;99.90
39919;DHT22;25589;51.552;13.424;2024-02-21T00:54:20;9.40;99.90
39919;DHT22;25589;51.552;13.424;2024-02-21T00:56:45;9.20;99.90
39919;DHT22;25589;51.552;13.424;2024-02-21T00:59:11;9.40;99.90
39919;DHT22;25589;51.552;13.424;2024-02-21T01:01:36;9.70;99.90
39919;DHT22;25589;51.552;13.424;2024-02-21T01:04:02;9.40;99.90
39919;DHT22;25589;51.552;13.424;2024-02-21T01:06:27;9.40;99.90
39919;DHT22;25589;51.552;13.424;2024-02-21T01:08:53;9.30;99.90
39919;DHT22;25589;51.552;13.424;2024-02-21T01:13:44;9.90;99.90
39919;DHT22;25589;51.552;13.424;2024-02-21T01:16:10;9.30;99.90
39919;DHT22;25589;51.552;13.424;2024-02-21T01:18:39;9.60;99.90
39919;DHT22;25589;51.552;13.424;2024-02-21T01:23:36;9.30;99.90
39919;DHT22;25589;51.552;13.424;2024-02-21T01:26:02;9.30;99.90
39919;DHT22;25589;51.552;13.424;2024-02-21T01:28:28;9.30;99.90
39919;DHT22;25589;51.552;13.424;2024-02-21T01:30:53;9.40;99.90
39919;DHT22;25589;51.552;13.424;2024-02-21T01:33:19;9.40;99.90
39919;DHT22;25589;51.552;13.424;2024-02-21T01:35:45;9.30;99.90
39919;DHT22;25589;51.552;13.424;2024-02-21T01:38:12;9.40;99.90
39919;DHT22;25589;51.552;13.424;2024-02-21T01:40:38;9.30;99.90
39919;DHT22;25589;51.552;13.424;2024-02-21T01:43:14;9.30;99.90
39919;DHT22;25589;51.552;13.424;2024-02-21T01:45:40;10.10;99.90
39919;DHT22;25589;51.552;13.424;2024-02-21T01:48:06;9.30;99.90
39919;DHT22;25589;51.552;13.424;2024-02-21T01:50:32;9.70;99.90
39919;DHT22;25589;51.552;13.424;2024-02-21T01:52:57;10.00;99.90
39919;DHT22;25589;51.552;13.424;2024-02-21T01:55:23;9.30;99.90
39919;DHT22;25589;51.552;13.424;2024-02-21T01:57:49;8.30;99.90
39919;DHT22;25589;51.552;13.424;2024-02-21T02:00:15;10.10;99.90
39919;DHT22;25589;51.552;13.424;2024-02-21T02:02:42;9.50;99.90
39919;DHT22;25589;51.552;13.424;2024-02-21T02:05:07;9.00;99.90
39919;DHT22;25589;51.552;13.424;2024-02-21T02:07:33;10.30;99.90
39919;DHT22;25589;51.552;13.424;2024-02-21T02:09:59;9.30;99.90
39919;DHT22;25589;51.552;13.424;2024-02-21T02:12:25;9.30;99.90
39919;DHT22;25589;51.552;13.424;2024-02-21T02:17:26;8.60;99.90
39919;DHT22;25589;51.552;13.424;2024-02-21T02:19:52;9.40;99.90
39919;DHT22;25589;51.552;13.424;2024-02-21T02:22:22;9.40;99.90
39919;DHT22;25589;51.552;13.424;2024-02-21T02:24:48;9.30;99.90
39919;DHT22;25589;51.552;13.424;2024-02-21T02:27:14;9.40;99.90
39919;DHT22;25589;51.552;13.424;2024-02-21T02:29:40;9.40;99.90
39919;DHT22;25589;51.552;13.424;2024-02-21T02:32:06;10.00;99.90
39919;DHT22;25589;51.552;13.424;2024-02-21T02:34:31;9.40;99.90
39919;DHT22;25589;51.552;13.424;2024-02-21T02:36:57;9.40;99.90
39919;DHT22;25589;51.552;13.424;2024-02-21T02:39:22;9.60;99.90
39919;DHT22;25589;51.552;13.424;2024-02-21T02:41:48;9.50;99.90
39919;DHT22;25589;51.552;13.424;2024-02-21T02:44:13;9.50;99.90
39919;DHT22;25589;51.552;13.424;2024-02-21T02:46:42;9.50;99.90
39919;DHT22;25589;51.552;13.424;2024-02-21T02:49:08;9.90;99.90
39919;DHT22;25589;51.552;13.424;2024-02-21T02:51:34;9.50;99.90
39919;DHT22;25589;51.552;13.424;2024-02-21T02:53:59;9.60;99.90
39919;DHT22;25589;51.552;13.424;2024-02-21T02:56:25;9.80;99.90
39919;DHT22;25589;51.552;13.424;2024-02-21T02:58:52;9.60;99.90
39919;DHT22;25589;51.552;13.424;2024-02-21T03:03:44;9.50;99.90
39919;DHT22;25589;51.552;13.424;2024-02-21T03:06:11;10.50;99.90
39919;DHT22;25589;51.552;13.424;2024-02-21T03:13:28;9.50;99.90
39919;DHT22;25589;51.552;13.424;2024-02-21T03:15:54;9.50;99.90
39919;DHT22;25589;51.552;13.424;2024-02-21T03:18:19;9.50;99.90
39919;DHT22;25589;51.552;13.424;2024-02-21T03:20:45;9.50;99.90
39919;DHT22;25589;51.552;13.424;2024-02-21T03:23:11;9.40;99.90
39919;DHT22;25589;51.552;13.424;2024-02-21T03:25:36;9.40;99.90
39919;DHT22;25589;51.552;13.424;2024-02-21T03:28:02;9.40;99.90
39919;DHT22;25589;51.552;13.424;2024-02-21T03:30:27;9.80;99.90
39919;DHT22;25589;51.552;13.424;2024-02-21T03:32:53;8.70;99.90
39919;DHT22;25589;51.552;13.424;2024-02-21T03:35:18;9.20;99.90
39919;DHT22;25589;51.552;13.424;2024-02-21T03:37:45;9.30;99.90
39919;DHT22;25589;51.552;13.424;2024-02-21T03:40:11;10.30;99.90
39919;DHT22;25589;51.552;13.424;2024-02-21T03:42:37;9.40;99.90
39919;DHT22;25589;51.552;13.424;2024-02-21T03:45:04;9.40;99.90
39919;DHT22;25589;51.552;13.424;2024-02-21T03:47:29;8.80;99.90
39919;DHT22;25589;51.552;13.424;2024-02-21T03:49:55;9.10;99.90
39919;DHT22;25589;51.552;13.424;2024-02-21T03:52:21;9.40;99.90
39919;DHT22;25589;51.552;13.424;2024-02-21T03:54:47;9.40;99.90
39919;DHT22;25589;51.552;13.424;2024-02-21T03:57:13;9.40;99.90
39919;DHT22;25589;51.552;13.424;2024-02-21T03:59:38;9.40;99.90
39919;DHT22;25589;51.552;13.424;2024-02-21T04:02:05;9.30;99.90
39919;DHT22;25589;51.552;13.424;2024-02-21T04:07:00;9.00;99.90
39919;DHT22;25589;51.552;13.424;2024-02-21T04:09:25;9.40;99.90
39919;DHT22;25589;51.552;13.424;2024-02-21T04:11:51;9.30;99.90
39919;DHT22;25589;51.552;13.424;2024-02-21T04:14:17;9.80;99.90
39919;DHT22;25589;51.552;13.424;2024-02-21T04:16:42;8.80;99.90
39919;DHT22;25589;51.552;13.424;2024-02-21T04:19:08;9.30;99.90
39919;DHT22;25589;51.552;13.424;2024-02-21T04:21:34;9.30;99.90
39919;DHT22;25589;51.552;13.424;2024-02-21T04:24:00;9.30;99.90
39919;DHT22;25589;51.552;13.424;2024-02-21T04:26:27;9.80;99.90
39919;DHT22;25589;51.552;13.424;2024-02-21T04:28:52;9.30;99.90
39919;DHT22;25589;51.552;13.424;2024-02-21T04:31:18;9.30;99.90
39919;DHT22;25589;51.552;13.424;2024-02-21T04:33:43;9.00;99.90
39919;DHT22;25589;51.552;13.424;2024-02-21T04:36:09;9.30;99.90
39919;DHT22;25589;51.552;13.424;2024-02-21T04:38:34;9.30;99.90
39919;DHT22;25589;51.552;13.424;2024-02-21T04:41:00;9.30;99.90
39919;DHT22;25589;51.552;13.424;2024-02-21T04:45:52;9.30;99.90
39919;DHT22;25589;51.552;13.424;2024-02-21T04:48:19;9.30;99.90
39919;DHT22;25589;51.552;13.424;2024-02-21T04:50:45;10.00;99.90
39919;DHT22;25589;51.552;13.424;2024-02-21T04:55:36;9.30;99.90
39919;DHT22;25589;51.552;13.424;2024-02-21T04:58:02;9.40;99.90
39919;DHT22;25589;51.552;13.424;2024-02-21T05:00:27;9.40;99.90
39919;DHT22;25589;51.552;13.424;2024-02-21T05:02:53;9.40;99.90
39919;DHT22;25589;51.552;13.424;2024-02-21T05:05:19;9.90;99.90
39919;DHT22;25589;51.552;13.424;2024-02-21T05:07:44;9.40;99.90
39919;DHT22;25589;51.552;13.424;2024-02-21T05:10:10;9.60;99.90
39919;DHT22;25589;51.552;13.424;2024-02-21T05:12:36;9.50;99.90
39919;DHT22;25589;51.552;13.424;2024-02-21T05:15:02;9.40;99.90
39919;DHT22;25589;51.552;13.424;2024-02-21T05:17:28;9.40;99.90
39919;DHT22;25589;51.552;13.424;2024-02-21T05:22:19;9.40;99.90
39919;DHT22;25589;51.552;13.424;2024-02-21T05:24:45;9.50;99.90
39919;DHT22;25589;51.552;13.424;2024-02-21T05:27:11;9.40;99.90
39919;DHT22;25589;51.552;13.424;2024-02-21T05:29:37;9.40;99.90
39919;DHT22;25589;51.552;13.424;2024-02-21T05:34:28;9.00;99.90
39919;DHT22;25589;51.552;13.424;2024-02-21T05:36:54;9.30;99.90
39919;DHT22;25589;51.552;13.424;2024-02-21T05:39:20;9.20;99.90
39919;DHT22;25589;51.552;13.424;2024-02-21T05:41:48;8.40;99.90
39919;DHT22;25589;51.552;13.424;2024-02-21T05:44:13;9.30;99.90
39919;DHT22;25589;51.552;13.424;2024-02-21T05:46:39;9.30;99.90
39919;DHT22;25589;51.552;13.424;2024-02-21T05:49:04;8.40;99.90
39919;DHT22;25589;51.552;13.424;2024-02-21T05:51:34;9.20;99.90
39919;DHT22;25589;51.552;13.424;2024-02-21T05:54:00;8.30;99.90
39919;DHT22;25589;51.552;13.424;2024-02-21T05:56:26;8.90;99.90
39919;DHT22;25589;51.552;13.424;2024-02-21T05:58:51;9.30;99.90
39919;DHT22;25589;51.552;13.424;2024-02-21T06:01:18;9.30;99.90
39919;DHT22;25589;51.552;13.424;2024-02-21T06:03:43;9.60;99.90
39919;DHT22;25589;51.552;13.424;2024-02-21T06:06:09;9.40;99.90
39919;DHT22;25589;51.552;13.424;2024-02-21T06:08:34;9.30;99.90
39919;DHT22;25589;51.552;13.424;2024-02-21T06:11:00;9.20;99.90
39919;DHT22;25589;51.552;13.424;2024-02-21T06:13:26;9.50;99.90
39919;DHT22;25589;51.552;13.424;2024-02-21T06:15:52;9.20;99.90
39919;DHT22;25589;51.552;13.424;2024-02-21T06:18:18;9.90;99.90
39919;DHT22;25589;51.552;13.424;2024-02-21T06:20:44;9.10;99.90
39919;DHT22;25589;51.552;13.424;2024-02-21T06:23:12;9.10;99.90
39919;DHT22;25589;51.552;13.424;2024-02-21T06:25:38;8.60;99.90
39919;DHT22;25589;51.552;13.424;2024-02-21T06:30:30;9.00;99.90
39919;DHT22;25589;51.552;13.424;2024-02-21T06:32:56;9.10;99.90
39919;DHT22;25589;51.552;13.424;2024-02-21T06:35:22;9.10;99.90
39919;DHT22;25589;51.552;13.424;2024-02-21T06:37:50;9.10;99.90
39919;DHT22;25589;51.552;13.424;2024-02-21T06:40:26;9.80;99.90
39919;DHT22;25589;51.552;13.424;2024-02-21T06:42:51;9.40;99.90
39919;DHT22;25589;51.552;13.424;2024-02-21T06:45:17;10.00;99.90
39919;DHT22;25589;51.552;13.424;2024-02-21T06:47:43;9.20;99.90
39919;DHT22;25589;51.552;13.424;2024-02-21T06:50:09;8.60;99.90
39919;DHT22;25589;51.552;13.424;2024-02-21T06:52:36;8.30;99.90
39919;DHT22;25589;51.552;13.424;2024-02-21T06:55:02;9.10;99.90
39919;DHT22;25589;51.552;13.424;2024-02-21T06:57:29;10.40;99.90
39919;DHT22;25589;51.552;13.424;2024-02-21T06:59:57;9.40;99.90
39919;DHT22;25589;51.552;13.424;2024-02-21T07:02:23;9.00;99.90
39919;DHT22;25589;51.552;13.424;2024-02-21T07:04:48;9.10;99.90
39919;DHT22;25589;51.552;13.424;2024-02-21T07:07:14;8.50;99.90
39919;DHT22;25589;51.552;13.424;2024-02-21T07:09:40;9.20;99.90
39919;DHT22;25589;51.552;13.424;2024-02-21T07:12:06;9.20;99.90
39919;DHT22;25589;51.552;13.424;2024-02-21T07:14:36;6.50;99.90
39919;DHT22;25589;51.552;13.424;2024-02-21T07:17:01;8.90;99.90
39919;DHT22;25589;51.552;13.424;2024-02-21T07:19:27;8.80;99.90
39919;DHT22;25589;51.552;13.424;2024-02-21T07:21:52;9.30;99.90
39919;DHT22;25589;51.552;13.424;2024-02-21T07:24:18;9.90;99.90
39919;DHT22;25589;51.552;13.424;2024-02-21T07:26:44;9.30;99.90
39919;DHT22;25589;51.552;13.424;2024-02-21T07:29:10;9.30;99.90
39919;DHT22;25589;51.552;13.424;2024-02-21T07:31:41;9.70;99.90
39919;DHT22;25589;51.552;13.424;2024-02-21T07:34:06;9.90;99.90
39919;DHT22;25589;51.552;13.424;2024-02-21T07:36:32;9.40;99.90
39919;DHT22;25589;51.552;13.424;2024-02-21T07:38:58;9.70;99.90
39919;DHT22;25589;51.552;13.424;2024-02-21T07:41:24;9.40;99.90
39919;DHT22;25589;51.552;13.424;2024-02-21T07:43:49;9.80;99.90
39919;DHT22;25589;51.552;13.424;2024-02-21T07:46:15;9.90;99.90
39919;DHT22;25589;51.552;13.424;2024-02-21T07:48:41;8.40;99.90
39919;DHT22;25589;51.552;13.424;2024-02-21T07:51:06;9.50;99.90
39919;DHT22;25589;51.552;13.424;2024-02-21T07:53:32;9.90;99.90
39919;DHT22;25589;51.552;13.424;2024-02-21T07:55:57;9.50;99.90
39919;DHT22;25589;51.552;13.424;2024-02-21T07:58:23;9.50;99.90
39919;DHT22;25589;51.552;13.424;2024-02-21T08:00:49;9.50;99.90
39919;DHT22;25589;51.552;13.424;2024-02-21T08:03:15;9.70;99.90
39919;DHT22;25589;51.552;13.424;2024-02-21T08:05:43;9.10;99.90
39919;DHT22;25589;51.552;13.424;2024-02-21T08:08:08;8.80;99.90
39919;DHT22;25589;51.552;13.424;2024-02-21T08:10:34;9.10;99.90
39919;DHT22;25589;51.552;13.424;2024-02-21T08:13:00;9.30;99.90
39919;DHT22;25589;51.552;13.424;2024-02-21T08:15:25;9.80;99.90
39919;DHT22;25589;51.552;13.424;2024-02-21T08:17:55;9.30;99.90
39919;DHT22;25589;51.552;13.424;2024-02-21T08:20:25;8.20;99.90
39919;DHT22;25589;51.552;13.424;2024-02-21T08:22:50;9.30;99.90
39919;DHT22;25589;51.552;13.424;2024-02-21T08:25:16;8.70;99.90
39919;DHT22;25589;51.552;13.424;2024-02-21T08:30:08;9.50;99.90
39919;DHT22;25589;51.552;13.424;2024-02-21T08:32:34;9.50;99.90
39919;DHT22;25589;51.552;13.424;2024-02-21T08:35:01;9.60;99.90
39919;DHT22;25589;51.552;13.424;2024-02-21T08:37:27;9.60;99.90
39919;DHT22;25589;51.552;13.424;2024-02-21T08:39:53;9.00;99.90
39919;DHT22;25589;51.552;13.424;2024-02-21T08:42:18;10.40;99.90
39919;DHT22;25589;51.552;13.424;2024-02-21T08:44:44;9.40;99.90
39919;DHT22;25589;51.552;13.424;2024-02-21T08:47:11;9.80;99.90
39919;DHT22;25589;51.552;13.424;2024-02-21T08:49:37;9.80;99.90
39919;DHT22;25589;51.552;13.424;2024-02-21T08:52:03;10.00;99.90
39919;DHT22;25589;51.552;13.424;2024-02-21T08:54:29;10.50;99.90
39919;DHT22;25589;51.552;13.424;2024-02-21T08:56:55;10.20;99.90
39919;DHT22;25589;51.552;13.424;2024-02-21T08:59:22;10.20;99.90
39919;DHT22;25589;51.552;13.424;2024-02-21T09:01:47;10.30;99.90
39919;DHT22;25589;51.552;13.424;2024-02-21T09:04:13;9.60;99.90
39919;DHT22;25589;51.552;13.424;2024-02-21T09:06:39;10.50;99.90
39919;DHT22;25589;51.552;13.424;2024-02-21T09:09:08;10.60;99.90
39919;DHT22;25589;51.552;13.424;2024-02-21T09:11:35;10.00;99.90
39919;DHT22;25589;51.552;13.424;2024-02-21T09:14:01;10.60;99.90
39919;DHT22;25589;51.552;13.424;2024-02-21T09:16:31;10.00;99.90
39919;DHT22;25589;51.552;13.424;2024-02-21T09:18:57;10.60;99.90
39919;DHT22;25589;51.552;13.424;2024-02-21T09:21:23;10.00;99.90
39919;DHT22;25589;51.552;13.424;2024-02-21T09:23:49;10.90;99.90
39919;DHT22;25589;51.552;13.424;2024-02-21T09:26:14;9.90;99.90
39919;DHT22;25589;51.552;13.424;2024-02-21T09:28:43;9.80;99.90
39919;DHT22;25589;51.552;13.424;2024-02-21T09:31:09;9.60;99.90
39919;DHT22;25589;51.552;13.424;2024-02-21T09:33:35;10.20;99.90
39919;DHT22;25589;51.552;13.424;2024-02-21T09:36:02;10.10;99.90
39919;DHT22;25589;51.552;13.424;2024-02-21T09:38:28;10.00;99.90
39919;DHT22;25589;51.552;13.424;2024-02-21T09:41:18;10.00;99.90
39919;DHT22;25589;51.552;13.424;2024-02-21T09:43:46;9.60;99.90
39919;DHT22;25589;51.552;13.424;2024-02-21T09:46:16;10.20;99.90
39919;DHT22;25589;51.552;13.424;2024-02-21T09:49:17;10.30;99.90
39919;DHT22;25589;51.552;13.424;2024-02-21T09:51:47;10.40;99.90
39919;DHT22;25589;51.552;13.424;2024-02-21T09:54:15;11.30;99.90
39919;DHT22;25589;51.552;13.424;2024-02-21T09:56:40;9.60;99.90
39919;DHT22;25589;51.552;13.424;2024-02-21T10:01:33;10.70;99.90
39919;DHT22;25589;51.552;13.424;2024-02-21T10:03:58;11.10;99.90
39919;DHT22;25589;51.552;13.424;2024-02-21T10:06:24;10.80;99.90
39919;DHT22;25589;51.552;13.424;2024-02-21T10:08:53;10.80;99.90
39919;DHT22;25589;51.552;13.424;2024-02-21T10:11:23;10.80;99.90
39919;DHT22;25589;51.552;13.424;2024-02-21T10:13:49;10.90;99.90
39919;DHT22;25589;51.552;13.424;2024-02-21T10:16:15;10.90;99.90
39919;DHT22;25589;51.552;13.424;2024-02-21T10:18:41;11.00;99.90
39919;DHT22;25589;51.552;13.424;2024-02-21T10:21:08;11.90;99.90
39919;DHT22;25589;51.552;13.424;2024-02-21T10:23:48;10.90;99.90
39919;DHT22;25589;51.552;13.424;2024-02-21T10:26:18;10.90;99.90
39919;DHT22;25589;51.552;13.424;2024-02-21T10:28:44;10.80;99.90
39919;DHT22;25589;51.552;13.424;2024-02-21T10:31:20;10.80;99.90
39919;DHT22;25589;51.552;13.424;2024-02-21T10:33:57;11.40;99.90
39919;DHT22;25589;51.552;13.424;2024-02-21T10:36:23;10.40;99.90
39919;DHT22;25589;51.552;13.424;2024-02-21T10:38:52;10.80;99.90
39919;DHT22;25589;51.552;13.424;2024-02-21T10:41:20;10.10;99.90
39919;DHT22;25589;51.552;13.424;2024-02-21T10:43:53;10.80;99.90
39919;DHT22;25589;51.552;13.424;2024-02-21T10:46:21;10.40;99.90
39919;DHT22;25589;51.552;13.424;2024-02-21T10:48:48;10.90;99.90
39919;DHT22;25589;51.552;13.424;2024-02-21T10:51:20;10.90;99.90
39919;DHT22;25589;51.552;13.424;2024-02-21T10:56:30;11.70;99.90
39919;DHT22;25589;51.552;13.424;2024-02-21T10:59:02;11.10;99.90
39919;DHT22;25589;51.552;13.424;2024-02-21T11:01:29;11.10;99.90
39919;DHT22;25589;51.552;13.424;2024-02-21T11:04:00;11.50;99.90
39919;DHT22;25589;51.552;13.424;2024-02-21T11:06:27;11.90;99.90
39919;DHT22;25589;51.552;13.424;2024-02-21T11:09:29;10.70;99.90
39919;DHT22;25589;51.552;13.424;2024-02-21T11:11:55;11.60;99.90
39919;DHT22;25589;51.552;13.424;2024-02-21T11:14:21;11.00;99.90
39919;DHT22;25589;51.552;13.424;2024-02-21T11:16:47;11.00;99.90
39919;DHT22;25589;51.552;13.424;2024-02-21T11:19:23;11.00;99.90
39919;DHT22;25589;51.552;13.424;2024-02-21T11:21:50;11.10;99.90
39919;DHT22;25589;51.552;13.424;2024-02-21T11:24:32;11.20;99.90
39919;DHT22;25589;51.552;13.424;2024-02-21T11:27:21;11.30;99.90
39919;DHT22;25589;51.552;13.424;2024-02-21T11:29:49;11.50;99.90
39919;DHT22;25589;51.552;13.424;2024-02-21T11:32:20;11.50;99.90
39919;DHT22;25589;51.552;13.424;2024-02-21T11:37:25;11.70;99.90
39919;DHT22;25589;51.552;13.424;2024-02-21T11:39:51;11.80;99.90
39919;DHT22;25589;51.552;13.424;2024-02-21T11:42:18;11.90;99.90
39919;DHT22;25589;51.552;13.424;2024-02-21T11:44:45;11.80;99.90
39919;DHT22;25589;51.552;13.424;2024-02-21T11:47:11;11.90;99.90
39919;DHT22;25589;51.552;13.424;2024-02-21T11:49:45;11.70;99.90
39919;DHT22;25589;51.552;13.424;2024-02-21T11:54:39;11.60;99.90
39919;DHT22;25589;51.552;13.424;2024-02-21T11:57:05;11.10;99.90
39919;DHT22;25589;51.552;13.424;2024-02-21T11:59:31;11.60;99.90
39919;DHT22;25589;51.552;13.424;2024-02-21T12:02:01;11.80;99.90
39919;DHT22;25589;51.552;13.424;2024-02-21T12:04:29;12.20;99.90
39919;DHT22;25589;51.552;13.424;2024-02-21T12:06:57;12.40;99.90
39919;DHT22;25589;51.552;13.424;2024-02-21T12:09:23;12.10;99.90
39919;DHT22;25589;51.552;13.424;2024-02-21T12:12:03;12.90;99.90
39919;DHT22;25589;51.552;13.424;2024-02-21T12:14:31;12.30;99.90
39919;DHT22;25589;51.552;13.424;2024-02-21T12:16:57;12.60;99.90
39919;DHT22;25589;51.552;13.424;2024-02-21T12:19:23;12.70;99.90
39919;DHT22;25589;51.552;13.424;2024-02-21T12:21:49;12.80;99.90
39919;DHT22;25589;51.552;13.424;2024-02-21T12:24:23;12.60;99.90
39919;DHT22;25589;51.552;13.424;2024-02-21T12:26:50;13.00;99.90
39919;DHT22;25589;51.552;13.424;2024-02-21T12:29:15;12.80;99.90
39919;DHT22;25589;51.552;13.424;2024-02-21T12:31:41;12.80;99.90
39919;DHT22;25589;51.552;13.424;2024-02-21T12:34:06;12.80;99.90
39919;DHT22;25589;51.552;13.424;2024-02-21T12:36:43;12.90;99.90
39919;DHT22;25589;51.552;13.424;2024-02-21T12:39:09;13.50;99.90
39919;DHT22;25589;51.552;13.424;2024-02-21T12:41:37;12.80;99.90
39919;DHT22;25589;51.552;13.424;2024-02-21T12:44:10;13.50;99.90
39919;DHT22;25589;51.552;13.424;2024-02-21T12:49:03;12.50;99.90
39919;DHT22;25589;51.552;13.424;2024-02-21T12:51:30;12.40;99.90
39919;DHT22;25589;51.552;13.424;2024-02-21T12:53:56;12.50;99.90
39919;DHT22;25589;51.552;13.424;2024-02-21T12:56:22;12.50;99.90
39919;DHT22;25589;51.552;13.424;2024-02-21T12:58:50;12.60;99.90
39919;DHT22;25589;51.552;13.424;2024-02-21T13:01:16;12.60;99.90
39919;DHT22;25589;51.552;13.424;2024-02-21T13:03:41;12.40;99.90
39919;DHT22;25589;51.552;13.424;2024-02-21T13:06:07;12.30;99.90
39919;DHT22;25589;51.552;13.424;2024-02-21T13:08:36;12.30;99.90
39919;DHT22;25589;51.552;13.424;2024-02-21T13:11:02;12.30;99.90
39919;DHT22;25589;51.552;13.424;2024-02-21T13:13:28;12.30;99.90
39919;DHT22;25589;51.552;13.424;2024-02-21T13:15:58;12.30;99.90
39919;DHT22;25589;51.552;13.424;2024-02-21T13:18:25;12.30;99.90
39919;DHT22;25589;51.552;13.424;2024-02-21T13:20:51;12.20;99.90
39919;DHT22;25589;51.552;13.424;2024-02-21T13:23:16;12.20;99.90
39919;DHT22;25589;51.552;13.424;2024-02-21T13:25:42;12.40;99.90
39919;DHT22;25589;51.552;13.424;2024-02-21T13:28:09;12.20;99.90
39919;DHT22;25589;51.552;13.424;2024-02-21T13:30:35;12.20;99.90
39919;DHT22;25589;51.552;13.424;2024-02-21T13:33:01;12.30;99.90
39919;DHT22;25589;51.552;13.424;2024-02-21T13:35:28;12.30;99.90
39919;DHT22;25589;51.552;13.424;2024-02-21T13:37:54;12.30;99.90
39919;DHT22;25589;51.552;13.424;2024-02-21T13:40:19;12.20;99.90
39919;DHT22;25589;51.552;13.424;2024-02-21T13:42:45;12.30;99.90
39919;DHT22;25589;51.552;13.424;2024-02-21T13:45:11;11.50;99.90
39919;DHT22;25589;51.552;13.424;2024-02-21T13:47:36;12.10;99.90
39919;DHT22;25589;51.552;13.424;2024-02-21T13:50:04;12.20;99.90
39919;DHT22;25589;51.552;13.424;2024-02-21T13:52:31;12.40;99.90
39919;DHT22;25589;51.552;13.424;2024-02-21T13:54:57;12.70;99.90
39919;DHT22;25589;51.552;13.424;2024-02-21T13:57:22;13.10;99.90
39919;DHT22;25589;51.552;13.424;2024-02-21T13:59:48;12.30;99.90
39919;DHT22;25589;51.552;13.424;2024-02-21T14:02:14;12.60;99.90
39919;DHT22;25589;51.552;13.424;2024-02-21T14:04:39;12.90;99.90
39919;DHT22;25589;51.552;13.424;2024-02-21T14:07:05;12.60;99.90
39919;DHT22;25589;51.552;13.424;2024-02-21T14:09:31;12.50;99.90
39919;DHT22;25589;51.552;13.424;2024-02-21T14:12:00;12.50;99.90
39919;DHT22;25589;51.552;13.424;2024-02-21T14:14:25;12.50;99.90
39919;DHT22;25589;51.552;13.424;2024-02-21T14:16:51;12.60;99.90
39919;DHT22;25589;51.552;13.424;2024-02-21T14:19:16;12.70;99.90
39919;DHT22;25589;51.552;13.424;2024-02-21T14:21:43;12.90;99.90
39919;DHT22;25589;51.552;13.424;2024-02-21T14:24:10;13.20;99.90
39919;DHT22;25589;51.552;13.424;2024-02-21T14:26:37;13.40;99.90
39919;DHT22;25589;51.552;13.424;2024-02-21T14:29:03;13.50;99.90
39919;DHT22;25589;51.552;13.424;2024-02-21T14:33:58;12.90;99.90
39919;DHT22;25589;51.552;13.424;2024-02-21T14:36:23;13.30;99.90
39919;DHT22;25589;51.552;13.424;2024-02-21T14:38:49;13.10;99.90
39919;DHT22;25589;51.552;13.424;2024-02-21T14:41:17;13.60;99.90
39919;DHT22;25589;51.552;13.424;2024-02-21T14:43:42;13.60;99.90
39919;DHT22;25589;51.552;13.424;2024-02-21T14:46:09;13.30;99.90
39919;DHT22;25589;51.552;13.424;2024-02-21T14:48:34;13.50;99.90
39919;DHT22;25589;51.552;13.424;2024-02-21T14:51:01;13.50;99.90
39919;DHT22;25589;51.552;13.424;2024-02-21T14:53:27;13.50;99.90
39919;DHT22;25589;51.552;13.424;2024-02-21T14:55:53;13.60;99.90
39919;DHT22;25589;51.552;13.424;2024-02-21T14:58:18;13.80;99.90
39919;DHT22;25589;51.552;13.424;2024-02-21T15:00:45;13.90;99.90
39919;DHT22;25589;51.552;13.424;2024-02-21T15:03:13;14.10;99.90
39919;DHT22;25589;51.552;13.424;2024-02-21T15:05:41;14.20;99.90
39919;DHT22;25589;51.552;13.424;2024-02-21T15:08:06;14.50;99.90
39919;DHT22;25589;51.552;13.424;2024-02-21T15:10:34;14.60;99.90
39919;DHT22;25589;51.552;13.424;2024-02-21T15:13:00;14.80;99.90
39919;DHT22;25589;51.552;13.424;2024-02-21T15:15:26;14.80;99.90
39919;DHT22;25589;51.552;13.424;2024-02-21T15:20:18;15.00;99.90
39919;DHT22;25589;51.552;13.424;2024-02-21T15:22:43;14.30;99.90
39919;DHT22;25589;51.552;13.424;2024-02-21T15:25:09;14.60;99.90
39919;DHT22;25589;51.552;13.424;2024-02-21T15:27:42;14.10;99.90
39919;DHT22;25589;51.552;13.424;2024-02-21T15:30:12;14.60;99.90
39919;DHT22;25589;51.552;13.424;2024-02-21T15:32:38;14.40;99.90
39919;DHT22;25589;51.552;13.424;2024-02-21T15:35:05;13.80;99.90
39919;DHT22;25589;51.552;13.424;2024-02-21T15:37:33;14.20;99.90
39919;DHT22;25589;51.552;13.424;2024-02-21T15:39:58;14.10;99.90
39919;DHT22;25589;51.552;13.424;2024-02-21T15:42:24;13.90;99.90
39919;DHT22;25589;51.552;13.424;2024-02-21T15:44:50;13.90;99.90
39919;DHT22;25589;51.552;13.424;2024-02-21T15:47:16;13.70;99.90
39919;DHT22;25589;51.552;13.424;2024-02-21T15:49:44;13.70;99.90
39919;DHT22;25589;51.552;13.424;2024-02-21T15:52:09;13.60;99.90
39919;DHT22;25589;51.552;13.424;2024-02-21T15:54:37;13.50;99.90
39919;DHT22;25589;51.552;13.424;2024-02-21T15:57:03;13.80;99.90
39919;DHT22;25589;51.552;13.424;2024-02-21T15:59:32;13.00;99.90
39919;DHT22;25589;51.552;13.424;2024-02-21T16:01:57;13.20;99.90
39919;DHT22;25589;51.552;13.424;2024-02-21T16:04:26;13.20;99.90
39919;DHT22;25589;51.552;13.424;2024-02-21T16:06:52;13.10;99.90
39919;DHT22;25589;51.552;13.424;2024-02-21T16:11:43;13.80;99.90
39919;DHT22;25589;51.552;13.424;2024-02-21T16:14:09;12.80;99.90